Time;durP1;ratioP1;P1;durP2;ratioP2;P2;SDS_P1;SDS_P2;PMS_P1;PMS_P2;Temp;Humidity;BMP_temperature;BMP_pressure;BME280_temperature;BME280_humidity;BME280_pressure;Samples;Min_cycle;Max_cycle;Signal;HPM_P1;HPM_P2
2024/01/28 00:01:56;;;;;;;40.53;12.63;;;;;;;;;;6244132;28;20053;-70
2024/01/28 00:04:57;;;;;;;42.80;11.60;;;;;;;;;;6241166;28;20103;-71
2024/01/28 00:07:58;;;;;;;40.60;11.50;;;;;;;;;;6240611;28;20504;-70
2024/01/28 00:10:59;;;;;;;47.17;13.27;;;;;;;;;;6241649;28;20127;-69
2024/01/28 00:14:00;;;;;;;44.60;12.70;;;;;;;;;;6241296;28;20046;-71
2024/01/28 00:17:01;;;;;;;49.03;12.38;;;;;;;;;;6240955;28;20050;-70
2024/01/28 00:20:05;;;;;;;38.00;12.77;;;;;;;;;;6242176;28;20050;-70
2024/01/28 00:23:06;;;;;;;45.67;13.18;;;;;;;;;;6241328;28;20049;-71
2024/01/28 00:26:07;;;;;;;49.65;13.48;;;;;;;;;;6240426;28;20408;-69
2024/01/28 00:29:09;;;;;;;45.30;12.07;;;;;;;;;;6241143;28;20347;-69
2024/01/28 00:32:09;;;;;;;43.63;12.85;;;;;;;;;;6241832;28;20104;-68
2024/01/28 00:35:10;;;;;;;45.17;14.23;;;;;;;;;;6240299;28;20800;-71
2024/01/28 00:38:11;;;;;;;37.88;12.30;;;;;;;;;;6241306;28;20076;-70
2024/01/28 00:41:29;;;;;;;42.50;13.65;;;;;;;;;;6238097;28;20050;-68
2024/01/28 00:44:33;;;;;;;44.83;14.00;;;;;;;;;;6250341;28;20036;-68
2024/01/28 00:47:34;;;;;;;50.33;13.43;;;;;;;;;;6244492;28;20068;-70
2024/01/28 00:50:34;;;;;;;47.03;14.32;;;;;;;;;;6249852;28;20609;-69
2024/01/28 00:53:35;;;;;;;47.95;14.05;;;;;;;;;;6243936;28;20057;-71
2024/01/28 00:56:35;;;;;;;50.45;14.25;;;;;;;;;;6239521;28;20046;-71
2024/01/28 00:59:36;;;;;;;44.70;13.25;;;;;;;;;;6241197;28;20061;-70
2024/01/28 01:02:37;;;;;;;55.00;14.90;;;;;;;;;;6239471;28;20047;-68
2024/01/28 01:05:41;;;;;;;44.92;14.23;;;;;;;;;;6244282;28;20053;-71
2024/01/28 01:08:42;;;;;;;49.63;14.65;;;;;;;;;;6244938;28;20072;-70
2024/01/28 01:11:43;;;;;;;45.10;14.93;;;;;;;;;;6249143;28;20057;-69
2024/01/28 01:14:44;;;;;;;41.83;14.00;;;;;;;;;;6246609;28;20041;-70
2024/01/28 01:17:49;;;;;;;53.20;14.70;;;;;;;;;;6242907;28;20072;-70
2024/01/28 01:20:50;;;;;;;50.85;14.02;;;;;;;;;;6246128;28;20047;-70
2024/01/28 01:23:51;;;;;;;46.60;12.90;;;;;;;;;;6237370;28;20119;-69
2024/01/28 01:26:52;;;;;;;42.20;12.80;;;;;;;;;;6244929;28;20509;-70
2024/01/28 01:29:53;;;;;;;49.08;13.80;;;;;;;;;;6244107;28;20049;-70
2024/01/28 01:32:53;;;;;;;43.78;12.10;;;;;;;;;;6247719;28;20054;-69
2024/01/28 01:35:54;;;;;;;45.00;12.77;;;;;;;;;;6246203;28;20132;-71
2024/01/28 01:38:56;;;;;;;37.63;13.65;;;;;;;;;;6245763;28;20056;-67
2024/01/28 01:41:57;;;;;;;43.35;13.57;;;;;;;;;;6245310;28;20053;-68
2024/01/28 01:44:58;;;;;;;51.35;13.20;;;;;;;;;;6246869;28;20049;-71
2024/01/28 01:47:59;;;;;;;48.08;13.10;;;;;;;;;;6241398;28;20055;-71
2024/01/28 01:51:00;;;;;;;41.33;13.07;;;;;;;;;;6249286;28;20041;-72
2024/01/28 01:54:02;;;;;;;47.90;13.80;;;;;;;;;;6245681;28;20610;-72
2024/01/28 01:57:03;;;;;;;41.70;14.05;;;;;;;;;;6233291;28;20057;-70
2024/01/28 02:00:05;;;;;;;50.10;13.10;;;;;;;;;;6247388;28;20455;-70
2024/01/28 02:03:05;;;;;;;44.50;13.02;;;;;;;;;;6250077;28;20584;-69
2024/01/28 02:06:06;;;;;;;47.90;12.57;;;;;;;;;;6245265;28;20076;-70
2024/01/28 02:09:07;;;;;;;39.40;11.95;;;;;;;;;;6251162;28;20060;-71
2024/01/28 02:12:08;;;;;;;38.75;11.40;;;;;;;;;;6243652;28;20050;-71
2024/01/28 02:15:10;;;;;;;31.88;10.77;;;;;;;;;;6239554;28;20504;-73
2024/01/28 02:18:11;;;;;;;44.25;12.23;;;;;;;;;;6235671;28;20409;-72
2024/01/28 02:21:12;;;;;;;36.97;10.98;;;;;;;;;;6239797;28;20053;-69
2024/01/28 02:24:15;;;;;;;33.33;10.18;;;;;;;;;;6235460;28;20576;-72
2024/01/28 02:27:16;;;;;;;39.80;11.30;;;;;;;;;;6236187;28;20394;-71
2024/01/28 02:30:17;;;;;;;41.03;10.88;;;;;;;;;;6240985;28;20075;-69
2024/01/28 02:33:18;;;;;;;36.38;10.73;;;;;;;;;;6239218;28;20049;-71
2024/01/28 02:36:18;;;;;;;35.30;10.65;;;;;;;;;;6240687;28;20050;-71
2024/01/28 02:39:19;;;;;;;34.28;10.32;;;;;;;;;;6243655;28;20042;-71
2024/01/28 02:42:20;;;;;;;36.03;10.35;;;;;;;;;;6244116;28;20493;-71
2024/01/28 02:45:20;;;;;;;40.67;10.25;;;;;;;;;;6243020;28;20045;-72
2024/01/28 02:48:21;;;;;;;30.63;9.13;;;;;;;;;;6247120;28;20567;-71
2024/01/28 02:51:22;;;;;;;33.63;10.23;;;;;;;;;;6252314;28;20053;-70
2024/01/28 02:54:23;;;;;;;30.38;9.02;;;;;;;;;;6253194;28;20053;-67
2024/01/28 02:57:23;;;;;;;40.47;9.55;;;;;;;;;;6246834;28;20045;-71
2024/01/28 03:00:24;;;;;;;31.52;9.18;;;;;;;;;;6252015;28;20056;-69
2024/01/28 03:03:24;;;;;;;36.88;9.32;;;;;;;;;;6251970;28;20044;-71
2024/01/28 03:06:25;;;;;;;35.17;8.02;;;;;;;;;;6245304;28;20099;-72
2024/01/28 03:09:26;;;;;;;38.58;9.32;;;;;;;;;;6242996;28;20136;-73
2024/01/28 03:12:27;;;;;;;30.48;8.88;;;;;;;;;;6250736;28;20052;-71
2024/01/28 03:15:27;;;;;;;29.65;9.15;;;;;;;;;;6252944;28;20051;-71
2024/01/28 03:18:28;;;;;;;33.33;8.57;;;;;;;;;;6249528;28;20055;-72
2024/01/28 03:21:29;;;;;;;30.05;9.32;;;;;;;;;;6243181;28;20045;-71
2024/01/28 03:24:30;;;;;;;41.75;10.00;;;;;;;;;;6243249;28;20053;-71
2024/01/28 03:27:30;;;;;;;37.90;10.18;;;;;;;;;;6239009;28;20056;-72
2024/01/28 03:30:32;;;;;;;45.53;9.65;;;;;;;;;;6241525;28;20053;-73
2024/01/28 03:33:33;;;;;;;36.78;9.27;;;;;;;;;;6241472;28;20048;-71
2024/01/28 03:36:34;;;;;;;36.92;10.20;;;;;;;;;;6238998;28;20143;-72
2024/01/28 03:39:34;;;;;;;31.25;8.60;;;;;;;;;;6241502;28;20041;-73
2024/01/28 03:42:35;;;;;;;35.10;8.82;;;;;;;;;;6241300;28;20481;-72
2024/01/28 03:45:36;;;;;;;27.98;8.30;;;;;;;;;;6240509;28;20045;-72
2024/01/28 03:48:37;;;;;;;31.98;8.85;;;;;;;;;;6240372;28;20567;-71
2024/01/28 03:51:37;;;;;;;27.95;8.07;;;;;;;;;;6242248;28;20046;-72
2024/01/28 03:54:38;;;;;;;24.67;7.95;;;;;;;;;;6239967;28;20136;-72
2024/01/28 03:57:39;;;;;;;27.95;9.95;;;;;;;;;;6239874;28;20042;-72
2024/01/28 04:00:40;;;;;;;34.97;9.60;;;;;;;;;;6239974;28;20071;-70
2024/01/28 04:03:40;;;;;;;27.17;8.75;;;;;;;;;;6239019;28;20046;-71
2024/01/28 04:06:43;;;;;;;35.15;11.45;;;;;;;;;;6236685;28;20759;-70
2024/01/28 04:09:44;;;;;;;32.75;10.05;;;;;;;;;;6239956;28;20057;-69
2024/01/28 04:12:46;;;;;;;27.60;9.77;;;;;;;;;;6240998;28;20048;-70
2024/01/28 04:15:47;;;;;;;32.95;10.77;;;;;;;;;;6253556;28;20038;-72
2024/01/28 04:18:48;;;;;;;33.35;11.30;;;;;;;;;;6238661;28;20060;-72
2024/01/28 04:21:48;;;;;;;36.85;10.13;;;;;;;;;;6240080;28;20064;-69
2024/01/28 04:24:49;;;;;;;37.78;11.02;;;;;;;;;;6237829;28;20041;-72
2024/01/28 04:27:50;;;;;;;37.08;11.63;;;;;;;;;;6202941;28;1059097;-71
2024/01/28 04:30:51;;;;;;;40.20;11.82;;;;;;;;;;6243342;28;20045;-70
2024/01/28 04:33:54;;;;;;;37.30;11.75;;;;;;;;;;6239211;28;20072;-71
2024/01/28 04:36:54;;;;;;;37.85;11.40;;;;;;;;;;6237132;28;20065;-72
2024/01/28 04:39:56;;;;;;;35.00;10.25;;;;;;;;;;6239564;28;20056;-69
2024/01/28 04:42:56;;;;;;;31.17;10.40;;;;;;;;;;6238488;28;20445;-72
2024/01/28 04:45:57;;;;;;;35.22;10.38;;;;;;;;;;6239730;28;20068;-72
2024/01/28 04:48:58;;;;;;;31.00;11.02;;;;;;;;;;6239944;28;20132;-72
2024/01/28 04:51:58;;;;;;;34.28;12.30;;;;;;;;;;6240668;28;20063;-69
2024/01/28 04:54:59;;;;;;;34.97;10.60;;;;;;;;;;6240942;28;20168;-72
2024/01/28 04:58:00;;;;;;;37.00;11.90;;;;;;;;;;6239510;28;20052;-71
2024/01/28 05:01:01;;;;;;;54.03;12.95;;;;;;;;;;6243105;28;20521;-71
2024/01/28 05:04:01;;;;;;;52.85;14.98;;;;;;;;;;6239494;28;20455;-72
2024/01/28 05:07:02;;;;;;;47.40;13.20;;;;;;;;;;6239166;28;20049;-71
2024/01/28 05:10:03;;;;;;;41.45;11.65;;;;;;;;;;6242598;28;20049;-71
2024/01/28 05:13:04;;;;;;;39.13;11.07;;;;;;;;;;6241080;28;20049;-69
2024/01/28 05:16:05;;;;;;;46.55;11.68;;;;;;;;;;6237305;28;20143;-71
2024/01/28 05:19:07;;;;;;;34.25;10.75;;;;;;;;;;6239507;28;20042;-71
2024/01/28 05:22:08;;;;;;;42.45;11.05;;;;;;;;;;6241101;28;20041;-71
2024/01/28 05:25:09;;;;;;;43.05;11.70;;;;;;;;;;6240429;28;20052;-71
2024/01/28 05:28:11;;;;;;;80.18;19.77;;;;;;;;;;6239667;28;20053;-71
2024/01/28 05:31:12;;;;;;;41.40;13.00;;;;;;;;;;6242186;28;20057;-71
2024/01/28 05:34:12;;;;;;;44.90;12.20;;;;;;;;;;6240451;28;20056;-70
2024/01/28 05:37:16;;;;;;;34.55;11.95;;;;;;;;;;6238605;28;20064;-71
2024/01/28 05:40:17;;;;;;;42.35;12.18;;;;;;;;;;6240725;28;20053;-71
2024/01/28 05:43:18;;;;;;;36.90;11.30;;;;;;;;;;6240267;28;20099;-72
2024/01/28 05:46:19;;;;;;;37.63;10.60;;;;;;;;;;6237422;28;20049;-72
2024/01/28 05:49:20;;;;;;;37.72;10.80;;;;;;;;;;6238357;28;20045;-71
2024/01/28 05:52:20;;;;;;;34.15;10.18;;;;;;;;;;6240056;28;20103;-69
2024/01/28 05:55:21;;;;;;;36.78;11.10;;;;;;;;;;6239821;28;20041;-71
2024/01/28 05:58:22;;;;;;;36.30;11.05;;;;;;;;;;6238697;28;20041;-71
2024/01/28 06:01:24;;;;;;;36.15;10.90;;;;;;;;;;6238705;28;20051;-71
2024/01/28 06:04:24;;;;;;;38.75;10.90;;;;;;;;;;6239204;28;20042;-71
2024/01/28 06:07:25;;;;;;;45.00;10.98;;;;;;;;;;6236682;28;20049;-71
2024/01/28 06:10:26;;;;;;;29.98;9.82;;;;;;;;;;6237669;28;20404;-70
2024/01/28 06:13:26;;;;;;;42.70;11.00;;;;;;;;;;6238725;28;20473;-71
2024/01/28 06:16:27;;;;;;;33.83;9.85;;;;;;;;;;6238567;28;20104;-71
2024/01/28 06:19:28;;;;;;;36.97;11.05;;;;;;;;;;6238435;28;20042;-70
2024/01/28 06:22:28;;;;;;;34.45;10.07;;;;;;;;;;6238408;28;20099;-72
2024/01/28 06:25:30;;;;;;;36.50;10.05;;;;;;;;;;6239059;28;20045;-72
2024/01/28 06:28:31;;;;;;;41.60;10.82;;;;;;;;;;6238200;28;20112;-70
2024/01/28 06:31:32;;;;;;;33.78;11.02;;;;;;;;;;6239586;28;20397;-71
2024/01/28 06:34:32;;;;;;;30.67;10.65;;;;;;;;;;6239297;28;20056;-70
2024/01/28 06:37:33;;;;;;;29.77;9.40;;;;;;;;;;6237817;28;20431;-68
2024/01/28 06:40:34;;;;;;;29.02;9.43;;;;;;;;;;6239342;28;20049;-72
2024/01/28 06:43:35;;;;;;;34.50;11.00;;;;;;;;;;6236698;28;20140;-70
2024/01/28 06:46:35;;;;;;;29.88;9.48;;;;;;;;;;6234812;28;20499;-72
2024/01/28 06:49:36;;;;;;;33.22;9.35;;;;;;;;;;6238167;28;20049;-67
2024/01/28 06:52:37;;;;;;;36.25;10.00;;;;;;;;;;6238455;28;20052;-71
2024/01/28 06:55:38;;;;;;;34.28;9.32;;;;;;;;;;6238854;28;20049;-71
2024/01/28 06:58:38;;;;;;;31.35;9.80;;;;;;;;;;6237953;28;20091;-70
2024/01/28 07:01:39;;;;;;;22.73;8.35;;;;;;;;;;6237587;28;20052;-71
2024/01/28 07:04:40;;;;;;;29.40;8.38;;;;;;;;;;6238807;28;20046;-71
2024/01/28 07:07:40;;;;;;;31.98;9.70;;;;;;;;;;6233754;28;20549;-71
2024/01/28 07:10:41;;;;;;;34.13;11.10;;;;;;;;;;6234656;28;20049;-72
2024/01/28 07:13:42;;;;;;;47.55;13.30;;;;;;;;;;6236550;28;20111;-72
2024/01/28 07:16:42;;;;;;;35.05;11.75;;;;;;;;;;6236036;28;20041;-72
2024/01/28 07:19:43;;;;;;;43.75;11.00;;;;;;;;;;6235991;28;20041;-72
2024/01/28 07:22:44;;;;;;;38.92;10.63;;;;;;;;;;6240010;28;20057;-71
2024/01/28 07:26:06;;;;;;;37.83;10.63;;;;;;;;;;6240284;28;20049;-72
2024/01/28 07:29:07;;;;;;;31.13;9.38;;;;;;;;;;6237691;28;20064;-69
2024/01/28 07:32:08;;;;;;;37.42;9.70;;;;;;;;;;6242153;28;20045;-72
2024/01/28 07:35:09;;;;;;;34.87;9.53;;;;;;;;;;6242118;28;20099;-72
2024/01/28 07:38:12;;;;;;;34.75;9.90;;;;;;;;;;6240579;28;20042;-71
2024/01/28 07:41:15;;;;;;;33.03;9.85;;;;;;;;;;6242026;28;20455;-72
2024/01/28 07:44:16;;;;;;;35.15;9.98;;;;;;;;;;6240218;28;20495;-71
2024/01/28 07:47:17;;;;;;;39.50;11.77;;;;;;;;;;6240681;28;20054;-71
2024/01/28 07:50:18;;;;;;;38.25;11.52;;;;;;;;;;6241140;28;20041;-72
2024/01/28 07:53:19;;;;;;;31.63;10.98;;;;;;;;;;6241116;28;20049;-72
2024/01/28 07:56:21;;;;;;;35.00;10.63;;;;;;;;;;6242767;28;20053;-68
2024/01/28 07:59:23;;;;;;;33.45;11.02;;;;;;;;;;6239907;28;20463;-71
2024/01/28 08:02:23;;;;;;;38.63;12.10;;;;;;;;;;6241938;28;20120;-72
2024/01/28 08:05:25;;;;;;;32.35;11.65;;;;;;;;;;6239947;28;20088;-69
2024/01/28 08:08:25;;;;;;;40.13;11.95;;;;;;;;;;6239267;28;20049;-72
2024/01/28 08:11:26;;;;;;;29.50;11.82;;;;;;;;;;6240499;28;20547;-68
2024/01/28 08:14:27;;;;;;;34.90;12.13;;;;;;;;;;6241511;28;20052;-70
2024/01/28 08:17:29;;;;;;;35.13;12.50;;;;;;;;;;6240942;28;20516;-72
2024/01/28 08:20:29;;;;;;;41.17;12.18;;;;;;;;;;6238559;28;20056;-69
2024/01/28 08:23:30;;;;;;;31.80;10.75;;;;;;;;;;6241041;28;20099;-71
2024/01/28 08:26:31;;;;;;;29.75;9.52;;;;;;;;;;6240890;28;20052;-70
2024/01/28 08:29:32;;;;;;;41.47;10.15;;;;;;;;;;6239338;28;20053;-71
2024/01/28 08:32:33;;;;;;;33.47;10.00;;;;;;;;;;6240125;28;20051;-68
2024/01/28 08:35:34;;;;;;;33.67;11.93;;;;;;;;;;6238558;28;20049;-68
2024/01/28 08:38:35;;;;;;;40.17;12.35;;;;;;;;;;6238910;28;20053;-68
2024/01/28 08:41:36;;;;;;;39.95;13.68;;;;;;;;;;6241048;28;20049;-68
2024/01/28 08:44:37;;;;;;;44.50;14.77;;;;;;;;;;6242663;28;20512;-68
2024/01/28 08:47:40;;;;;;;49.50;15.68;;;;;;;;;;6241557;28;20148;-68
2024/01/28 08:50:40;;;;;;;51.33;15.70;;;;;;;;;;6241447;28;20064;-67
2024/01/28 08:53:42;;;;;;;55.50;15.57;;;;;;;;;;6257492;28;20489;-67
2024/01/28 08:56:42;;;;;;;48.13;16.15;;;;;;;;;;6242027;28;20045;-67
2024/01/28 08:59:43;;;;;;;41.45;14.40;;;;;;;;;;6240876;28;20559;-68
2024/01/28 09:02:44;;;;;;;53.38;16.00;;;;;;;;;;6241745;28;20413;-67
2024/01/28 09:05:45;;;;;;;45.67;15.68;;;;;;;;;;6241375;28;20390;-67
2024/01/28 09:08:45;;;;;;;50.70;15.30;;;;;;;;;;6240004;28;20901;-71
2024/01/28 09:11:46;;;;;;;47.17;15.55;;;;;;;;;;6242312;28;20049;-68
2024/01/28 09:14:47;;;;;;;53.55;15.85;;;;;;;;;;6241816;28;20049;-68
2024/01/28 09:17:47;;;;;;;50.25;15.75;;;;;;;;;;6239790;28;20432;-68
2024/01/28 09:20:48;;;;;;;54.42;15.77;;;;;;;;;;6234465;28;20069;-68
2024/01/28 09:23:49;;;;;;;48.75;15.15;;;;;;;;;;6240502;28;20041;-67
2024/01/28 09:26:49;;;;;;;50.08;15.98;;;;;;;;;;6238982;28;20797;-68
2024/01/28 09:29:51;;;;;;;42.08;15.10;;;;;;;;;;6238526;28;20103;-71
2024/01/28 09:32:52;;;;;;;50.03;15.57;;;;;;;;;;6240873;28;20057;-72
2024/01/28 09:35:52;;;;;;;48.55;16.83;;;;;;;;;;6238111;28;20061;-72
2024/01/28 09:38:53;;;;;;;57.42;15.80;;;;;;;;;;6236738;28;20080;-73
2024/01/28 09:42:25;;;;;;;45.63;15.07;;;;;;;;;;6239383;28;20046;-66
2024/01/28 09:45:27;;;;;;;59.55;19.65;;;;;;;;;;6241022;28;20064;-67
2024/01/28 09:48:28;;;;;;;55.25;17.50;;;;;;;;;;6237841;28;20046;-66
2024/01/28 09:51:29;;;;;;;55.38;17.52;;;;;;;;;;6235666;28;20056;-68
2024/01/28 09:54:29;;;;;;;60.33;19.58;;;;;;;;;;6240423;28;20485;-65
2024/01/28 09:57:31;;;;;;;59.50;18.90;;;;;;;;;;6240113;28;20052;-65
2024/01/28 10:00:32;;;;;;;60.83;19.23;;;;;;;;;;6238279;28;20049;-70
2024/01/28 10:03:34;;;;;;;54.50;18.33;;;;;;;;;;6241319;28;20115;-71
2024/01/28 10:06:35;;;;;;;61.40;19.88;;;;;;;;;;6240920;28;20416;-70
2024/01/28 10:09:35;;;;;;;54.97;18.52;;;;;;;;;;6240114;28;20069;-71
2024/01/28 10:12:36;;;;;;;66.60;19.75;;;;;;;;;;6238615;28;20048;-70
2024/01/28 10:15:37;;;;;;;63.50;22.13;;;;;;;;;;6237575;28;20136;-70
2024/01/28 10:18:38;;;;;;;60.10;20.50;;;;;;;;;;6237900;28;20041;-71
2024/01/28 10:21:39;;;;;;;61.33;20.17;;;;;;;;;;6238048;28;20049;-70
2024/01/28 10:24:42;;;;;;;67.50;20.60;;;;;;;;;;6237379;28;20042;-70
2024/01/28 10:27:44;;;;;;;51.90;19.30;;;;;;;;;;6237956;28;20068;-71
2024/01/28 10:30:49;;;;;;;;;;;;;;;;;;6237227;28;20080;-71
2024/01/28 10:33:50;;;;;;;55.00;18.10;;;;;;;;;;6240505;28;19928;-71
2024/01/28 10:36:53;;;;;;;53.88;16.98;;;;;;;;;;6235866;28;20042;-72
2024/01/28 10:39:58;;;;;;;48.40;18.58;;;;;;;;;;6235623;28;20616;-71
2024/01/28 10:43:00;;;;;;;54.05;18.42;;;;;;;;;;6237595;28;20496;-71
2024/01/28 10:46:06;;;;;;;61.80;19.58;;;;;;;;;;6238083;28;20844;-70
2024/01/28 10:49:09;;;;;;;68.60;20.13;;;;;;;;;;6236937;28;20530;-71
2024/01/28 10:52:10;;;;;;;66.45;20.08;;;;;;;;;;6236055;28;20048;-72
2024/01/28 10:55:11;;;;;;;64.68;21.42;;;;;;;;;;6240525;28;20053;-71
2024/01/28 10:58:12;;;;;;;56.25;19.67;;;;;;;;;;6242217;28;20485;-71
2024/01/28 11:01:13;;;;;;;57.33;17.48;;;;;;;;;;6242088;28;20045;-71
2024/01/28 11:04:14;;;;;;;55.07;17.83;;;;;;;;;;6244331;28;20054;-71
2024/01/28 11:07:16;;;;;;;61.38;18.17;;;;;;;;;;6241813;28;20307;-71
2024/01/28 11:10:17;;;;;;;52.15;19.48;;;;;;;;;;6242343;28;20509;-71
2024/01/28 11:13:17;;;;;;;65.72;20.80;;;;;;;;;;6242029;28;20053;-72
2024/01/28 11:16:19;;;;;;;59.58;19.70;;;;;;;;;;6243272;28;20041;-71
2024/01/28 11:19:20;;;;;;;58.70;21.58;;;;;;;;;;6240907;28;20041;-72
2024/01/28 11:22:21;;;;;;;67.25;22.13;;;;;;;;;;6239008;28;20158;-72
2024/01/28 11:25:26;;;;;;;55.95;21.50;;;;;;;;;;6242681;28;20049;-71
2024/01/28 11:28:29;;;;;;;59.58;21.20;;;;;;;;;;6239907;28;20088;-71
2024/01/28 11:31:34;;;;;;;58.13;21.45;;;;;;;;;;6240876;28;20160;-72
2024/01/28 11:34:35;;;;;;;64.43;22.48;;;;;;;;;;6241712;28;20052;-72
2024/01/28 11:37:55;;;;;;;68.00;22.80;;;;;;;;;;6241995;28;20046;-73
2024/01/28 11:40:59;;;;;;;74.30;22.45;;;;;;;;;;6239969;28;20833;-72
2024/01/28 11:43:59;;;;;;;61.13;22.48;;;;;;;;;;6242218;28;20080;-72
2024/01/28 11:47:02;;;;;;;63.25;21.55;;;;;;;;;;6241803;28;20041;-72
2024/01/28 11:50:02;;;;;;;63.97;21.52;;;;;;;;;;6239172;28;20058;-72
2024/01/28 11:53:06;;;;;;;64.00;20.25;;;;;;;;;;6240339;28;20053;-72
2024/01/28 11:56:07;;;;;;;69.05;20.92;;;;;;;;;;6241940;28;20100;-73
2024/01/28 11:59:09;;;;;;;69.85;21.55;;;;;;;;;;6241152;28;20046;-73
2024/01/28 12:02:11;;;;;;;64.15;22.23;;;;;;;;;;6241763;28;20073;-73
2024/01/28 12:05:12;;;;;;;65.57;21.00;;;;;;;;;;6240908;28;20057;-72
2024/01/28 12:08:12;;;;;;;55.45;19.63;;;;;;;;;;6241692;28;20045;-73
2024/01/28 12:11:16;;;;;;;55.70;19.15;;;;;;;;;;6238370;28;20749;-72
2024/01/28 12:14:16;;;;;;;52.33;17.58;;;;;;;;;;6238867;28;20049;-72
2024/01/28 12:17:17;;;;;;;50.83;17.35;;;;;;;;;;6240467;28;20041;-72
2024/01/28 12:20:22;;;;;;;56.05;18.83;;;;;;;;;;6241611;28;20041;-72
2024/01/28 12:23:23;;;;;;;73.15;25.55;;;;;;;;;;6239776;28;20049;-72
2024/01/28 12:26:27;;;;;;;60.80;21.08;;;;;;;;;;6239825;28;20049;-73
2024/01/28 12:29:28;;;;;;;65.68;20.38;;;;;;;;;;6239575;28;20045;-72
2024/01/28 12:32:29;;;;;;;58.03;19.88;;;;;;;;;;6242767;28;20049;-73
2024/01/28 12:35:30;;;;;;;67.67;21.30;;;;;;;;;;6240005;28;20389;-73
2024/01/28 12:38:30;;;;;;;58.00;19.13;;;;;;;;;;6240916;28;20049;-72
2024/01/28 12:41:31;;;;;;;56.85;18.88;;;;;;;;;;6239054;28;20474;-72
2024/01/28 12:44:31;;;;;;;73.53;23.50;;;;;;;;;;6238416;28;20053;-72
2024/01/28 12:47:36;;;;;;;71.97;28.25;;;;;;;;;;6241443;28;20497;-72
2024/01/28 12:50:36;;;;;;;83.10;32.78;;;;;;;;;;6238524;28;20049;-73
2024/01/28 12:53:37;;;;;;;53.10;19.27;;;;;;;;;;6239532;28;20091;-73
2024/01/28 12:56:38;;;;;;;54.08;21.33;;;;;;;;;;6242379;28;20049;-73
2024/01/28 12:59:39;;;;;;;49.15;17.45;;;;;;;;;;6240830;28;20110;-73
2024/01/28 13:02:40;;;;;;;60.70;20.13;;;;;;;;;;6238069;28;20523;-72
2024/01/28 13:05:41;;;;;;;44.10;15.00;;;;;;;;;;6239400;28;20045;-72
2024/01/28 13:08:42;;;;;;;46.90;14.85;;;;;;;;;;6239864;28;20076;-73
2024/01/28 13:11:43;;;;;;;44.90;15.10;;;;;;;;;;6239364;28;20045;-72
2024/01/28 13:14:43;;;;;;;92.65;43.13;;;;;;;;;;6235208;28;20049;-72
2024/01/28 13:17:44;;;;;;;69.20;28.50;;;;;;;;;;6238051;28;20045;-72
2024/01/28 13:20:44;;;;;;;39.83;14.00;;;;;;;;;;6240664;28;20045;-72
2024/01/28 13:23:45;;;;;;;45.20;14.00;;;;;;;;;;6239373;28;20092;-72
2024/01/28 13:26:47;;;;;;;43.30;15.93;;;;;;;;;;6237146;28;20084;-72
2024/01/28 13:29:49;;;;;;;62.55;27.15;;;;;;;;;;6239580;28;20049;-72
2024/01/28 13:32:49;;;;;;;62.65;21.23;;;;;;;;;;6238384;28;20110;-72
2024/01/28 13:35:51;;;;;;;55.03;20.50;;;;;;;;;;6238693;28;20045;-72
2024/01/28 13:38:51;;;;;;;42.80;15.30;;;;;;;;;;6238572;28;20037;-73
2024/01/28 13:41:52;;;;;;;80.55;37.17;;;;;;;;;;6239934;28;20126;-72
2024/01/28 13:44:53;;;;;;;51.75;16.08;;;;;;;;;;6236734;28;20115;-73
2024/01/28 13:47:54;;;;;;;53.17;18.70;;;;;;;;;;6239655;28;20072;-72
2024/01/28 13:50:55;;;;;;;62.40;18.42;;;;;;;;;;6239175;28;20834;-73
2024/01/28 13:53:56;;;;;;;55.13;18.52;;;;;;;;;;6225665;28;20460;-72
2024/01/28 13:56:57;;;;;;;51.65;17.20;;;;;;;;;;6238942;28;20064;-72
2024/01/28 13:59:58;;;;;;;53.03;16.67;;;;;;;;;;6239399;28;20060;-73
2024/01/28 14:02:58;;;;;;;52.08;19.35;;;;;;;;;;6234807;28;20639;-73
2024/01/28 14:05:59;;;;;;;61.47;20.50;;;;;;;;;;6235275;28;20049;-71
2024/01/28 14:09:00;;;;;;;70.93;27.95;;;;;;;;;;6241240;28;20114;-72
2024/01/28 14:12:01;;;;;;;52.55;22.15;;;;;;;;;;6237793;28;20053;-72
2024/01/28 14:15:02;;;;;;;73.13;25.75;;;;;;;;;;6237493;28;20316;-71
2024/01/28 14:18:05;;;;;;;66.00;22.50;;;;;;;;;;6240148;28;20064;-72
2024/01/28 14:21:05;;;;;;;78.18;23.08;;;;;;;;;;6239040;28;20049;-72
2024/01/28 14:24:06;;;;;;;84.82;23.88;;;;;;;;;;6234715;28;20053;-72
2024/01/28 14:27:07;;;;;;;84.28;25.98;;;;;;;;;;6237515;28;20143;-72
2024/01/28 14:30:08;;;;;;;68.05;24.13;;;;;;;;;;6242041;28;20047;-71
2024/01/28 14:33:11;;;;;;;56.50;19.65;;;;;;;;;;6243178;28;20421;-72
2024/01/28 14:36:12;;;;;;;71.68;24.27;;;;;;;;;;6241797;28;20057;-70
2024/01/28 14:39:13;;;;;;;84.07;28.65;;;;;;;;;;6243442;28;20069;-71
2024/01/28 14:42:15;;;;;;;63.00;20.75;;;;;;;;;;6241938;28;20050;-71
2024/01/28 14:45:16;;;;;;;60.70;21.80;;;;;;;;;;6241525;28;20144;-70
2024/01/28 14:48:17;;;;;;;95.05;35.38;;;;;;;;;;6240889;28;20465;-70
2024/01/28 14:51:17;;;;;;;121.47;48.17;;;;;;;;;;6243300;28;20712;-71
2024/01/28 14:54:19;;;;;;;110.78;36.80;;;;;;;;;;6256557;28;20096;-71
2024/01/28 14:57:19;;;;;;;75.77;28.33;;;;;;;;;;6242519;28;20041;-70
2024/01/28 15:00:20;;;;;;;69.82;25.00;;;;;;;;;;6243425;28;20483;-71
2024/01/28 15:03:21;;;;;;;80.38;26.63;;;;;;;;;;6242587;28;20038;-70
2024/01/28 15:06:22;;;;;;;74.43;26.08;;;;;;;;;;6242528;28;20159;-70
2024/01/28 15:09:23;;;;;;;85.20;29.42;;;;;;;;;;6243215;28;20412;-71
2024/01/28 15:12:24;;;;;;;161.82;49.13;;;;;;;;;;6243008;28;20045;-71
2024/01/28 15:15:24;;;;;;;276.88;77.00;;;;;;;;;;6241779;28;20037;-71
2024/01/28 15:18:25;;;;;;;214.27;62.88;;;;;;;;;;6245118;28;20049;-70
2024/01/28 15:21:26;;;;;;;207.25;59.83;;;;;;;;;;6244749;28;20048;-70
2024/01/28 15:24:27;;;;;;;192.45;59.33;;;;;;;;;;6243889;28;20049;-70
2024/01/28 15:27:27;;;;;;;195.95;62.55;;;;;;;;;;6244250;28;20080;-70
2024/01/28 15:30:28;;;;;;;161.43;53.10;;;;;;;;;;6245275;28;20052;-71
2024/01/28 15:33:29;;;;;;;148.27;48.33;;;;;;;;;;6243887;28;20045;-72
2024/01/28 15:36:30;;;;;;;130.18;42.05;;;;;;;;;;6243834;28;20136;-71
2024/01/28 15:39:30;;;;;;;128.25;41.63;;;;;;;;;;6245116;28;20045;-71
2024/01/28 15:42:31;;;;;;;125.35;50.28;;;;;;;;;;6243592;28;20133;-71
2024/01/28 15:45:32;;;;;;;129.80;49.80;;;;;;;;;;6242978;28;20056;-71
2024/01/28 15:48:35;;;;;;;139.75;49.45;;;;;;;;;;6244329;28;20045;-71
2024/01/28 15:51:35;;;;;;;154.82;56.90;;;;;;;;;;6244199;28;20498;-71
2024/01/28 15:54:36;;;;;;;161.45;56.78;;;;;;;;;;6242572;28;20493;-70
2024/01/28 15:57:37;;;;;;;150.25;52.03;;;;;;;;;;6243818;28;20099;-70
2024/01/28 16:00:38;;;;;;;143.60;49.60;;;;;;;;;;6244119;28;20049;-71
2024/01/28 16:03:38;;;;;;;138.38;48.45;;;;;;;;;;6463535;22;20499;-73
2024/01/28 16:06:39;;;;;;;147.02;47.22;;;;;;;;;;6265589;28;20089;-72
2024/01/28 16:09:40;;;;;;;156.60;50.40;;;;;;;;;;6269010;28;20045;-73
2024/01/28 16:12:41;;;;;;;148.98;50.47;;;;;;;;;;6269551;28;20539;-74
2024/01/28 16:15:41;;;;;;;138.27;49.55;;;;;;;;;;6251680;28;20045;-72
2024/01/28 16:18:42;;;;;;;134.73;48.70;;;;;;;;;;6269237;28;20045;-72
2024/01/28 16:21:43;;;;;;;143.43;53.05;;;;;;;;;;6269895;28;20049;-71
2024/01/28 16:24:44;;;;;;;151.88;55.35;;;;;;;;;;6269911;28;20543;-72
2024/01/28 16:27:44;;;;;;;143.35;52.67;;;;;;;;;;6261842;28;20418;-71
2024/01/28 16:30:45;;;;;;;141.10;51.30;;;;;;;;;;6265675;28;20071;-72
2024/01/28 16:33:46;;;;;;;137.15;49.78;;;;;;;;;;6266300;28;20052;-71
2024/01/28 16:36:47;;;;;;;153.95;52.03;;;;;;;;;;6266324;28;20502;-71
2024/01/28 16:39:48;;;;;;;157.68;53.55;;;;;;;;;;6267856;28;20517;-72
2024/01/28 16:42:49;;;;;;;151.95;54.97;;;;;;;;;;6267789;28;20487;-71
2024/01/28 16:45:49;;;;;;;134.52;51.03;;;;;;;;;;6248006;28;20041;-72
2024/01/28 16:48:50;;;;;;;135.93;49.15;;;;;;;;;;6265277;28;20123;-72
2024/01/28 16:51:52;;;;;;;152.10;51.45;;;;;;;;;;6260469;28;20097;-72
2024/01/28 16:54:53;;;;;;;144.57;52.55;;;;;;;;;;6244935;28;20106;-72
2024/01/28 16:57:54;;;;;;;177.10;64.60;;;;;;;;;;6244113;28;20381;-70
2024/01/28 17:00:54;;;;;;;169.25;62.35;;;;;;;;;;6248473;28;20435;-68
2024/01/28 17:03:55;;;;;;;179.73;68.97;;;;;;;;;;6241423;28;20065;-68
2024/01/28 17:06:56;;;;;;;183.98;68.25;;;;;;;;;;6247762;28;20486;-71
2024/01/28 17:09:57;;;;;;;182.10;66.25;;;;;;;;;;6239894;28;20525;-69
2024/01/28 17:13:00;;;;;;;178.15;70.30;;;;;;;;;;6240667;28;20084;-68
2024/01/28 17:16:01;;;;;;;198.23;72.03;;;;;;;;;;6239341;28;20044;-68
2024/01/28 17:19:02;;;;;;;200.32;76.15;;;;;;;;;;6240662;28;20479;-68
2024/01/28 17:22:03;;;;;;;210.18;82.03;;;;;;;;;;6240796;28;20049;-68
2024/01/28 17:25:04;;;;;;;218.27;85.53;;;;;;;;;;6247477;28;20048;-69
2024/01/28 17:28:07;;;;;;;228.70;86.43;;;;;;;;;;6239833;28;20377;-66
2024/01/28 17:31:08;;;;;;;229.73;88.53;;;;;;;;;;6246300;28;20476;-66
2024/01/28 17:34:09;;;;;;;230.85;86.68;;;;;;;;;;6239857;28;20060;-66